CST,Max TemperatureF,Mean TemperatureF,Min TemperatureF,Max Dew PointF,MeanDew PointF,Min DewpointF,Max Humidity, Mean Humidity, Min Humidity, Max Sea Level PressureIn, Mean Sea Level PressureIn, Min Sea Level PressureIn, Max VisibilityMiles, Mean VisibilityMiles, Min VisibilityMiles, Max Wind SpeedMPH, Mean Wind SpeedMPH, Max Gust SpeedMPH,PrecipitationIn, CloudCover, Events, WindDirDegrees
2012-12-1,74,67,60,61,59,54,84,74,64,30.11,30.04,29.97,10,9,7,17,7,25,0.00,7,,176
2012-12-2,78,72,66,63,61,59,87,72,56,30.12,30.05,30.01,10,10,5,17,7,25,T,5,,182
2012-12-3,78,70,62,64,62,59,93,73,52,30.05,30.00,29.93,10,10,8,18,7,26,0.00,6,,178
2012-12-4,70,57,43,66,60,42,93,76,59,30.24,30.08,29.99,10,8,2,13,5,17,0.01,6,Rain,233
2012-12-5,66,52,37,47,42,37,100,74,48,30.27,30.19,30.06,10,8,0,14,4,17,0.00,3,Fog,100
2012-12-6,57,49,41,50,48,40,96,87,77,30.06,29.97,29.89,10,7,3,16,3,22,0.00,7,,143
2012-12-7,65,59,53,57,55,51,93,83,73,29.90,29.85,29.79,6,3,1,9,3,12,0.00,8,,127
2012-12-8,71,64,56,58,56,52,100,77,53,29.90,29.84,29.78,10,5,1,8,1,10,0.00,7,,224
2012-12-9,77,63,48,64,57,38,97,75,53,29.91,29.79,29.71,10,8,5,21,8,27,0.00,5,,238
2012-12-10,48,35,22,35,20,15,74,53,31,30.12,30.03,29.90,10,10,10,17,8,24,0.00,2,,330
2012-12-11,49,32,15,24,17,12,96,61,25,30.27,30.18,30.12,10,8,1,7,1,10,0.00,0,,146
2012-12-12,54,35,15,25,16,10,92,55,18,30.37,30.30,30.25,10,9,1,10,2,13,0.00,0,,119
2012-12-13,59,39,19,26,20,17,92,57,21,30.37,30.31,30.23,10,10,10,10,3,13,0.00,0,,97
2012-12-14,55,41,26,46,33,23,92,65,38,30.24,30.10,29.90,10,9,2,10,5,14,0.01,5,Rain,91
2012-12-15,73,57,41,56,46,33,100,63,25,29.90,29.84,29.77,10,5,0,18,6,25,T,4,Fog-Rain,205
2012-12-16,66,52,38,44,40,36,93,67,40,29.81,29.74,29.68,10,10,9,9,1,11,0.00,1,,120
2012-12-17,62,46,30,41,36,29,100,67,34,29.87,29.76,29.69,10,6,0,15,4,20,0.00,2,Fog,266
2012-12-18,71,54,37,39,30,26,100,64,27,29.88,29.84,29.75,10,5,0,7,3,,0.00,0,Fog,91
2012-12-19,73,55,37,63,53,35,93,79,64,29.82,29.71,29.52,10,9,1,38,7,55,T,6,Rain,136
2012-12-20,59,45,30,52,20,6,60,39,18,30.35,30.09,29.63,10,10,6,32,15,43,0.00,2,,293
2012-12-21,61,41,20,24,17,10,91,53,14,30.45,30.35,30.28,10,10,10,15,4,21,0.00,0,,246
2012-12-22,65,42,19,35,24,16,92,55,17,30.32,30.21,30.05,10,10,6,15,3,19,0.00,1,,171
2012-12-23,69,53,37,53,46,37,100,77,54,30.04,29.88,29.78,10,7,0,15,3,19,0.00,5,Fog,224
2012-12-24,63,45,27,38,33,27,100,67,34,29.97,29.87,29.82,10,4,0,12,3,15,0.00,0,Fog,228
2012-12-25,50,41,32,39,34,28,96,73,50,29.95,29.75,29.66,10,3,0,25,11,40,0.14,8,Fog-Rain-Snow,34
2012-12-26,34,28,21,28,23,18,96,86,64,30.21,30.13,29.98,10,6,0,16,7,,0.00,2,Fog,305
2012-12-27,34,29,23,33,27,22,100,91,82,30.19,30.10,29.98,6,3,1,13,6,15,T,8,Rain,97
2012-12-28,39,36,32,36,34,26,100,91,82,30.11,29.95,29.86,10,5,2,21,6,22,0.00,8,Rain,23
2012-12-29,44,32,20,26,19,16,88,62,36,30.44,30.32,30.13,10,9,6,16,5,24,0.00,0,,298
2012-12-30,44,31,17,34,23,14,92,67,41,30.51,30.41,30.28,10,9,7,8,2,11,T,1,,107
2012-12-31,41,39,37,40,37,30,100,85,70,30.27,30.08,30.00,10,4,0,12,4,17,0.24,8,Fog-Rain,63